createdAt,value
2023-02-17T00:00:55.914Z,97493.03
2023-02-17T00:03:23.558Z,97501.66
2023-02-17T00:05:51.489Z,97498.22
2023-02-17T00:08:19.206Z,97499.69
2023-02-17T00:10:46.785Z,97495.31
2023-02-17T00:13:14.350Z,97494.19
2023-02-17T00:15:42.041Z,97496.66
2023-02-17T00:18:10.966Z,97501.53
2023-02-17T00:20:38.490Z,97483.13
2023-02-17T00:23:05.982Z,97481.47
2023-02-17T00:25:33.501Z,97477.91
2023-02-17T00:28:01.010Z,97467.94
2023-02-17T00:30:28.592Z,97466.19
2023-02-17T00:32:56.172Z,97468.78
2023-02-17T00:35:25.100Z,97471.41
2023-02-17T00:37:52.665Z,97469.59
2023-02-17T00:40:20.513Z,97472.22
2023-02-17T00:42:48.853Z,97471.88
2023-02-17T00:45:16.508Z,97464.06
2023-02-17T00:47:44.053Z,97471.72
2023-02-17T00:50:11.744Z,97477.75
2023-02-17T00:52:41.112Z,97483.78
2023-02-17T00:55:11.446Z,97489.66
2023-02-17T00:57:39.017Z,97483.63
2023-02-17T01:00:09.218Z,97486.25
2023-02-17T01:02:36.748Z,97485.59
2023-02-17T01:05:04.383Z,97480.50
2023-02-17T01:07:31.906Z,97480.84
2023-02-17T01:10:00.761Z,97479.03
2023-02-17T01:12:28.275Z,97465.34
2023-02-17T01:14:55.827Z,97464.38
2023-02-17T01:17:23.413Z,97466.00
2023-02-17T01:19:51.125Z,97477.09
2023-02-17T01:22:18.705Z,97466.81
2023-02-17T01:24:46.258Z,97459.16
2023-02-17T01:27:15.285Z,97456.88
2023-02-17T01:29:44.593Z,97449.38
2023-02-17T01:32:12.336Z,97452.13
2023-02-17T01:34:40.051Z,97450.66
2023-02-17T01:37:07.848Z,97445.59
2023-02-17T01:39:35.371Z,97442.19
2023-02-17T01:42:02.999Z,97442.84
2023-02-17T01:44:34.170Z,97451.66
2023-02-17T01:47:01.712Z,97448.84
2023-02-17T01:49:33.800Z,97444.47
2023-02-17T01:52:07.699Z,97433.88
2023-02-17T01:54:39.089Z,97433.72
2023-02-17T01:57:06.981Z,97434.53
2023-02-17T01:59:35.891Z,97428.16
2023-02-17T02:02:06.619Z,97431.78
2023-02-17T02:04:37.289Z,97435.34
2023-02-17T02:07:11.207Z,97421.47
2023-02-17T02:09:43.044Z,97420.03
2023-02-17T02:12:21.709Z,97417.56
2023-02-17T02:14:51.782Z,97409.91
2023-02-17T02:17:28.732Z,97405.66
2023-02-17T02:20:17.109Z,97407.31
2023-02-17T02:23:21.304Z,97409.75
2023-02-17T02:26:15.848Z,97403.56
2023-02-17T02:29:00.410Z,97394.75
2023-02-17T02:31:44.908Z,97399.81
2023-02-17T02:34:18.250Z,97395.25
2023-02-17T02:36:49.484Z,97394.91
2023-02-17T02:39:20.037Z,97392.16
2023-02-17T02:41:51.524Z,97390.53
2023-02-17T02:44:22.019Z,97390.34
2023-02-17T02:46:58.507Z,97388.41
2023-02-17T02:49:28.604Z,97378.78
2023-02-17T02:52:04.674Z,97374.41
2023-02-17T02:54:42.868Z,97374.22
2023-02-17T02:57:25.886Z,97379.94
2023-02-17T02:59:59.108Z,97387.41
2023-02-17T03:02:31.889Z,97378.78
2023-02-17T03:05:06.335Z,97382.06
2023-02-17T03:07:38.571Z,97373.41
2023-02-17T03:10:07.152Z,97382.84
2023-02-17T03:12:37.206Z,97381.25
2023-02-17T03:15:13.398Z,97380.91
2023-02-17T03:17:40.964Z,97372.13
2023-02-17T03:20:11.713Z,97381.56
2023-02-17T03:22:42.422Z,97378.13
2023-02-17T03:25:10.563Z,97373.06
2023-02-17T03:27:38.084Z,97382.69
2023-02-17T03:30:07.584Z,97380.09
2023-02-17T03:32:35.279Z,97371.75
2023-02-17T03:35:02.835Z,97370.81
2023-02-17T03:37:32.979Z,97369.66
2023-02-17T03:40:00.555Z,97378.13
2023-02-17T03:42:28.078Z,97371.13
2023-02-17T03:44:55.589Z,97362.47
2023-02-17T03:47:23.084Z,97364.44
2023-02-17T03:49:51.614Z,97360.22
2023-02-17T03:52:19.132Z,97360.38
2023-02-17T03:54:48.057Z,97361.97
2023-02-17T03:57:15.574Z,97361.03
2023-02-17T03:59:43.047Z,97354.81
2023-02-17T04:02:10.556Z,97354.81
2023-02-17T04:04:39.102Z,97352.84
2023-02-17T04:07:06.975Z,97362.34
2023-02-17T04:09:34.598Z,97362.34
2023-02-17T04:12:03.440Z,97362.34
2023-02-17T04:14:31.036Z,97360.53
2023-02-17T04:16:58.536Z,97357.78
2023-02-17T04:19:26.053Z,97357.78
2023-02-17T04:21:53.607Z,97360.38
2023-02-17T04:24:21.105Z,97365.41
2023-02-17T04:26:48.623Z,97361.84
2023-02-17T04:29:17.446Z,97371.47
2023-02-17T04:31:45.086Z,97360.19
2023-02-17T04:34:12.700Z,97367.38
2023-02-17T04:36:40.244Z,97373.41
2023-02-17T04:39:07.877Z,97370.97
2023-02-17T04:41:35.420Z,97369.31
2023-02-17T04:44:02.897Z,97385.97
2023-02-17T04:46:31.818Z,97370.47
2023-02-17T04:48:59.301Z,97373.06
2023-02-17T04:51:26.880Z,97373.06
2023-02-17T04:53:54.400Z,97375.38
2023-02-17T04:56:21.953Z,97374.38
2023-02-17T04:58:49.466Z,97369.16
2023-02-17T05:01:17.165Z,97378.63
2023-02-17T05:03:46.042Z,97382.06
2023-02-17T05:06:13.544Z,97378.78
2023-02-17T05:08:41.021Z,97377.00
2023-02-17T05:11:08.573Z,97370.97
2023-02-17T05:13:36.197Z,97378.63
2023-02-17T05:16:03.992Z,97363.13
2023-02-17T05:18:31.645Z,97360.03
2023-02-17T05:21:00.500Z,97363.63
2023-02-17T05:23:27.993Z,97356.13
2023-02-17T05:25:55.530Z,97360.53
2023-02-17T05:28:23.098Z,97358.06
2023-02-17T05:30:51.006Z,97357.41
2023-02-17T05:33:18.649Z,97352.53
2023-02-17T05:35:46.152Z,97358.56
2023-02-17T05:38:14.987Z,97355.00
2023-02-17T05:40:42.464Z,97355.94
2023-02-17T05:43:09.940Z,97356.59
2023-02-17T05:45:37.462Z,97361.00
2023-02-17T05:48:05.385Z,97364.44
2023-02-17T05:50:32.925Z,97367.84
2023-02-17T05:53:00.414Z,97357.41
2023-02-17T05:55:29.327Z,97367.03
2023-02-17T05:57:56.831Z,97362.97
2023-02-17T06:00:24.717Z,97366.22
2023-02-17T06:02:52.296Z,97373.06
2023-02-17T06:05:19.921Z,97377.31
2023-02-17T06:07:47.428Z,97378.28
2023-02-17T06:10:15.347Z,97378.63
2023-02-17T06:12:44.157Z,97384.84
2023-02-17T06:15:11.870Z,97379.75
2023-02-17T06:17:39.392Z,97387.75
2023-02-17T06:20:10.026Z,97384.66
2023-02-17T06:22:37.656Z,97392.78
2023-02-17T06:25:05.941Z,97392.31
2023-02-17T06:27:33.495Z,97385.31
2023-02-17T06:30:02.433Z,97389.53
2023-02-17T06:32:29.955Z,97391.19
2023-02-17T06:34:59.309Z,97395.75
2023-02-17T06:37:27.150Z,97400.16
2023-02-17T06:39:54.858Z,97400.78
2023-02-17T06:42:22.565Z,97392.78
2023-02-17T06:44:50.388Z,97397.19
2023-02-17T06:47:29.890Z,97394.59
2023-02-17T06:49:57.611Z,97403.22
2023-02-17T06:52:26.641Z,97386.09
2023-02-17T06:54:54.252Z,97399.97
2023-02-17T06:57:21.833Z,97389.06
2023-02-17T06:59:49.479Z,97396.03
2023-02-17T07:02:17.272Z,97398.66
2023-02-17T07:04:46.207Z,97408.94
2023-02-17T07:07:13.832Z,97398.50
2023-02-17T07:09:42.044Z,97407.31
2023-02-17T07:12:09.866Z,97420.34
2023-02-17T07:14:37.796Z,97412.69
2023-02-17T07:17:05.992Z,97413.63
2023-02-17T07:19:33.782Z,97406.66
2023-02-17T07:22:03.937Z,97409.25
2023-02-17T07:24:31.795Z,97420.50
2023-02-17T07:27:00.878Z,97415.94
2023-02-17T07:29:28.532Z,97415.94
2023-02-17T07:31:58.171Z,97413.34
2023-02-17T07:34:25.733Z,97412.03
2023-02-17T07:36:53.322Z,97407.31
2023-02-17T07:39:22.426Z,97403.88
2023-02-17T07:41:50.023Z,97410.56
2023-02-17T07:44:17.562Z,97411.22
2023-02-17T07:46:45.100Z,97413.53
2023-02-17T07:49:13.488Z,97405.84
2023-02-17T07:51:41.222Z,97408.47
2023-02-17T07:54:08.935Z,97410.06
2023-02-17T07:56:37.839Z,97412.53
2023-02-17T07:59:08.806Z,97407.31
2023-02-17T08:01:36.403Z,97415.16
2023-02-17T08:04:04.800Z,97424.78
2023-02-17T08:06:32.696Z,97433.75
2023-02-17T08:09:20.847Z,97431.44
2023-02-17T08:12:07.280Z,97446.28
2023-02-17T08:14:38.303Z,97433.38
2023-02-17T08:17:06.501Z,97431.78
2023-02-17T08:19:47.638Z,97423.78
2023-02-17T08:22:17.480Z,97431.44
2023-02-17T08:24:45.709Z,97441.56
2023-02-17T08:27:15.603Z,97437.97
2023-02-17T08:29:43.874Z,97438.78
2023-02-17T08:32:12.537Z,97437.97
2023-02-17T08:34:40.140Z,97437.97
2023-02-17T08:37:08.875Z,97440.72
2023-02-17T08:39:37.412Z,97436.34
2023-02-17T08:42:05.918Z,97441.22
2023-02-17T08:44:37.434Z,97447.75
2023-02-17T08:47:06.007Z,97440.44
2023-02-17T08:49:33.780Z,97451.53
2023-02-17T08:52:35.459Z,97444.34
2023-02-17T08:55:04.886Z,97446.78
2023-02-17T08:57:32.633Z,97442.38
2023-02-17T09:00:01.685Z,97449.09
2023-02-17T09:02:29.758Z,97444.53
2023-02-17T09:04:57.385Z,97447.78
2023-02-17T09:07:25.535Z,97445.81
2023-02-17T09:09:54.203Z,97447.47
2023-02-17T09:12:29.169Z,97448.28
2023-02-17T09:14:57.125Z,97444.38
2023-02-17T09:17:26.318Z,97457.25
2023-02-17T09:19:54.901Z,97462.47
2023-02-17T09:22:31.577Z,97458.22
2023-02-17T09:25:00.128Z,97470.31
2023-02-17T09:27:27.977Z,97476.19
2023-02-17T09:29:55.919Z,97469.31
2023-02-17T09:32:23.795Z,97459.03
2023-02-17T09:34:53.036Z,97461.66
2023-02-17T09:37:21.290Z,97464.09
2023-02-17T09:39:49.772Z,97462.94
2023-02-17T09:42:21.217Z,97468.69
2023-02-17T09:44:52.185Z,97466.56
2023-02-17T09:47:24.216Z,97461.16
2023-02-17T09:49:57.558Z,97462.81
2023-02-17T09:52:29.527Z,97456.44
2023-02-17T09:55:05.080Z,97460.00
2023-02-17T09:57:38.299Z,97466.88
2023-02-17T10:00:11.478Z,97458.06
2023-02-17T10:02:45.423Z,97450.88
2023-02-17T10:05:18.057Z,97457.91
2023-02-17T10:07:48.243Z,97449.91
2023-02-17T10:10:20.071Z,97469.00
2023-02-17T10:12:54.734Z,97469.81
2023-02-17T10:15:26.554Z,97460.84
2023-02-17T10:18:00.757Z,97465.75
2023-02-17T10:20:34.843Z,97466.41
2023-02-17T10:23:08.296Z,97469.66
2023-02-17T10:25:50.499Z,97452.84
2023-02-17T10:28:26.979Z,97449.25
2023-02-17T10:31:03.194Z,97450.09
2023-02-17T10:33:37.356Z,97456.56
2023-02-17T10:36:13.519Z,97450.06
2023-02-17T10:38:55.990Z,97448.09
2023-02-17T10:41:28.190Z,97448.59
2023-02-17T10:43:56.235Z,97448.09
2023-02-17T10:46:30.382Z,97441.53
2023-02-17T10:49:00.530Z,97442.78
2023-02-17T10:51:31.621Z,97446.34
2023-02-17T10:54:04.203Z,97434.81
2023-02-17T10:56:39.543Z,97447.03
2023-02-17T10:59:13.219Z,97436.53
2023-02-17T11:01:42.343Z,97450.56
2023-02-17T11:04:14.177Z,97447.78
2023-02-17T11:06:49.994Z,97460.84
2023-02-17T11:09:21.279Z,97437.31
2023-02-17T11:11:59.154Z,97449.88
2023-02-17T11:14:30.084Z,97452.31
2023-02-17T11:17:00.866Z,97439.88
2023-02-17T11:19:30.753Z,97426.97
2023-02-17T11:22:01.778Z,97425.81
2023-02-17T11:24:31.132Z,97423.81
2023-02-17T11:27:01.517Z,97431.00
2023-02-17T11:29:30.252Z,97440.94
2023-02-17T11:32:00.423Z,97436.97
2023-02-17T11:34:30.347Z,97434.19
2023-02-17T11:37:01.192Z,97424.91
2023-02-17T11:39:29.281Z,97424.06
2023-02-17T11:41:57.680Z,97417.22
2023-02-17T11:44:27.520Z,97409.00
2023-02-17T11:47:14.274Z,97409.66
2023-02-17T11:50:20.690Z,97414.22
2023-02-17T11:53:09.189Z,97410.00
2023-02-17T11:55:42.984Z,97409.19
2023-02-17T11:58:31.444Z,97414.75
2023-02-17T12:01:13.182Z,97416.75
2023-02-17T12:03:55.740Z,97408.06
2023-02-17T12:06:37.963Z,97409.06
2023-02-17T12:09:16.719Z,97416.28
2023-02-17T12:11:52.920Z,97412.19
2023-02-17T12:14:38.918Z,97418.25
2023-02-17T12:17:38.450Z,97426.44
2023-02-17T12:20:32.937Z,97416.97
2023-02-17T12:23:11.332Z,97423.03
2023-02-17T12:25:46.507Z,97416.97
2023-02-17T12:28:37.222Z,97422.84
2023-02-17T12:31:17.010Z,97415.81
2023-02-17T12:33:57.379Z,97410.41
2023-02-17T12:36:30.403Z,97418.25
2023-02-17T12:39:01.713Z,97418.44
2023-02-17T12:41:36.282Z,97415.66
2023-02-17T12:44:14.520Z,97414.66
2023-02-17T12:46:45.595Z,97415.94
2023-02-17T12:49:18.494Z,97416.56
2023-02-17T12:51:51.085Z,97405.94
2023-02-17T12:54:24.582Z,97411.44
2023-02-17T12:57:12.158Z,97412.56
2023-02-17T12:59:41.811Z,97405.31
2023-02-17T13:02:13.061Z,97409.59
2023-02-17T13:04:42.853Z,97407.63
2023-02-17T13:07:41.642Z,97402.22
2023-02-17T13:10:20.504Z,97394.34
2023-02-17T13:13:00.023Z,97403.03
2023-02-17T13:15:32.162Z,97407.63
2023-02-17T13:18:03.017Z,97382.41
2023-02-17T13:20:52.954Z,97392.06
2023-02-17T13:23:38.832Z,97393.25
2023-02-17T13:26:29.233Z,97391.44
2023-02-17T13:29:13.268Z,97394.41
2023-02-17T13:31:50.253Z,97395.38
2023-02-17T13:34:30.834Z,97401.47
2023-02-17T13:37:01.688Z,97391.00
2023-02-17T13:39:36.902Z,97393.78
2023-02-17T13:42:07.372Z,97399.34
2023-02-17T13:44:41.714Z,97396.91
2023-02-17T13:47:17.618Z,97386.63
2023-02-17T13:49:53.682Z,97395.91
2023-02-17T14:00:30.907Z,97395.63
2023-02-17T14:03:00.962Z,97392.66
2023-02-17T14:05:37.569Z,97393.94
2023-02-17T14:08:08.628Z,97398.00
2023-02-17T14:10:37.310Z,97399.66
2023-02-17T14:13:05.144Z,97391.97
2023-02-17T14:15:34.071Z,97385.13
2023-02-17T14:18:01.678Z,97386.72
2023-02-17T14:20:32.749Z,97395.59
2023-02-17T14:23:04.461Z,97382.66
2023-02-17T14:25:34.282Z,97372.34
2023-02-17T14:28:01.864Z,97374.97
2023-02-17T14:30:31.995Z,97371.38
2023-02-17T14:33:06.826Z,97365.16
2023-02-17T14:35:35.551Z,97359.75
2023-02-17T14:38:19.427Z,97365.16
2023-02-17T14:40:46.950Z,97358.94
2023-02-17T14:43:14.481Z,97364.97
2023-02-17T14:45:42.152Z,97365.78
2023-02-17T14:48:11.452Z,97363.16
2023-02-17T14:50:42.389Z,97360.56
2023-02-17T14:53:14.274Z,97365.78
2023-02-17T14:55:46.948Z,97367.44
2023-02-17T14:58:19.552Z,97364.16
2023-02-17T15:00:47.155Z,97351.25
2023-02-17T15:03:16.403Z,97351.63
2023-02-17T15:05:44.817Z,97346.38
2023-02-17T15:08:15.644Z,97344.38
2023-02-17T15:10:44.111Z,97351.88
2023-02-17T15:13:15.134Z,97344.03
2023-02-17T15:15:44.935Z,97332.56
2023-02-17T15:18:13.188Z,97343.69
2023-02-17T15:20:45.459Z,97345.31
2023-02-17T15:23:14.520Z,97341.06
2023-02-17T15:25:42.958Z,97335.81
2023-02-17T15:28:13.747Z,97338.28
2023-02-17T15:30:41.514Z,97329.78
2023-02-17T15:33:12.284Z,97328.97
2023-02-17T15:35:43.116Z,97335.00
2023-02-17T15:38:12.858Z,97325.72
2023-02-17T15:40:41.645Z,97338.81
2023-02-17T15:43:15.701Z,97338.81
2023-02-17T15:45:43.461Z,97335.53
2023-02-17T15:48:19.973Z,97330.47
2023-02-17T15:50:48.900Z,97338.34
2023-02-17T15:53:16.434Z,97329.66
2023-02-17T15:55:44.065Z,97329.50
2023-02-17T15:58:16.565Z,97320.00
2023-02-17T16:00:46.450Z,97320.66
2023-02-17T16:03:14.619Z,97321.66
2023-02-17T16:05:42.707Z,97322.63
2023-02-17T16:08:11.689Z,97326.25
2023-02-17T16:10:42.287Z,97330.84
2023-02-17T16:13:13.607Z,97331.19
2023-02-17T16:15:41.161Z,97328.75
2023-02-17T16:18:17.401Z,97337.41
2023-02-17T16:20:45.009Z,97342.66
2023-02-17T16:23:13.933Z,97341.00
2023-02-17T16:25:45.138Z,97337.59
2023-02-17T16:28:16.671Z,97327.47
2023-02-17T16:30:46.159Z,97334.16
2023-02-17T16:33:14.685Z,97325.66
2023-02-17T16:35:43.519Z,97341.38
2023-02-17T16:38:17.188Z,97339.75
2023-02-17T16:40:48.186Z,97335.66
2023-02-17T16:43:17.176Z,97339.28
2023-02-17T16:45:53.013Z,97335.22
2023-02-17T16:48:21.345Z,97342.91
2023-02-17T16:50:49.313Z,97345.69
2023-02-17T16:53:18.510Z,97349.28
2023-02-17T16:55:46.799Z,97366.63
2023-02-17T16:58:16.792Z,97363.00
2023-02-17T17:00:47.170Z,97372.66
2023-02-17T17:03:15.594Z,97370.22
2023-02-17T17:05:43.816Z,97378.69
2023-02-17T17:08:14.308Z,97369.22
2023-02-17T17:10:44.754Z,97365.63
2023-02-17T17:13:13.132Z,97377.53
2023-02-17T17:15:43.893Z,97370.53
2023-02-17T17:18:19.140Z,97373.78
2023-02-17T17:20:46.859Z,97371.81
2023-02-17T17:23:15.693Z,97369.78
2023-02-17T17:25:46.769Z,97359.31
2023-02-17T17:28:16.361Z,97351.47
2023-02-17T17:30:44.718Z,97352.47
2023-02-17T17:33:12.462Z,97351.47
2023-02-17T17:35:40.109Z,97348.06
2023-02-17T17:38:08.062Z,97340.19
2023-02-17T17:40:48.485Z,97339.41
2023-02-17T17:43:20.111Z,97356.72
2023-02-17T17:45:48.542Z,97361.78
2023-02-17T17:48:17.685Z,97365.03
2023-02-17T17:50:46.492Z,97372.72
2023-02-17T17:53:14.378Z,97369.47
2023-02-17T17:55:42.015Z,97368.47
2023-02-17T17:58:09.583Z,97360.44
2023-02-17T18:00:38.493Z,97363.06
2023-02-17T18:03:06.150Z,97375.34
2023-02-17T18:05:33.713Z,97366.69
2023-02-17T18:08:01.723Z,97374.16
2023-02-17T18:10:29.497Z,97378.22
2023-02-17T18:12:57.407Z,97391.97
2023-02-17T18:15:25.517Z,97383.13
2023-02-17T18:17:54.432Z,97398.66
2023-02-17T18:20:22.115Z,97387.00
2023-02-17T18:22:49.798Z,97387.00
2023-02-17T18:25:18.182Z,97381.97
2023-02-17T18:27:47.423Z,97381.16
2023-02-17T18:30:17.564Z,97388.19
2023-02-17T18:32:45.750Z,97380.31
2023-02-17T18:35:15.612Z,97401.91
2023-02-17T18:37:44.014Z,97399.28
2023-02-17T18:40:14.405Z,97394.84
2023-02-17T18:42:44.568Z,97394.84
2023-02-17T18:45:12.721Z,97401.75
2023-02-17T18:47:40.368Z,97415.63
2023-02-17T18:50:09.404Z,97412.22
2023-02-17T18:52:39.201Z,97425.94
2023-02-17T18:55:20.926Z,97427.75
2023-02-17T18:57:56.719Z,97431.19
2023-02-17T19:00:29.437Z,97434.75
2023-02-17T19:03:23.957Z,97450.47
2023-02-17T19:05:58.330Z,97447.84
2023-02-17T19:08:31.387Z,97439.19
2023-02-17T19:10:59.282Z,97454.56
2023-02-17T19:13:31.459Z,97462.22
2023-02-17T19:16:09.815Z,97463.22
2023-02-17T19:18:43.268Z,97466.81
2023-02-17T19:21:15.894Z,97484.34
2023-02-17T19:23:45.187Z,97476.31
2023-02-17T19:26:14.649Z,97463.56
2023-02-17T19:28:42.731Z,97474.41
2023-02-17T19:31:13.207Z,97478.19
2023-02-17T19:33:41.325Z,97487.00
2023-02-17T19:36:11.977Z,97482.59
2023-02-17T19:38:51.454Z,97484.56
2023-02-17T19:41:27.461Z,97482.28
2023-02-17T19:43:55.756Z,97493.75
2023-02-17T19:46:26.184Z,97489.50
2023-02-17T19:48:53.948Z,97494.94
2023-02-17T19:51:24.123Z,97495.72
2023-02-17T19:53:51.918Z,97492.47
2023-02-17T19:56:25.722Z,97499.69
2023-02-17T19:58:56.469Z,97512.47
2023-02-17T20:01:27.357Z,97517.38
2023-02-17T20:04:05.539Z,97522.50
2023-02-17T20:06:36.015Z,97528.22
2023-02-17T20:09:12.094Z,97527.94
2023-02-17T20:11:45.671Z,97532.84
2023-02-17T20:14:16.515Z,97529.94
2023-02-17T20:16:53.703Z,97540.59
2023-02-17T20:19:21.561Z,97554.19
2023-02-17T20:21:51.789Z,97554.84
2023-02-17T20:24:19.452Z,97545.84
2023-02-17T20:26:50.928Z,97541.25
2023-02-17T20:29:18.678Z,97531.16
2023-02-17T20:31:46.301Z,97534.72
2023-02-17T20:34:26.895Z,97534.91
2023-02-17T20:36:54.885Z,97533.25
2023-02-17T20:39:22.670Z,97528.38
2023-02-17T20:41:51.571Z,97529.34
2023-02-17T20:44:19.273Z,97531.16
2023-02-17T20:46:48.169Z,97536.88
2023-02-17T20:49:16.268Z,97526.78
2023-02-17T20:51:44.041Z,97526.94
2023-02-17T20:54:11.643Z,97530.69
2023-02-17T20:56:41.037Z,97534.28
2023-02-17T20:59:12.921Z,97532.31
2023-02-17T21:01:40.794Z,97528.72
2023-02-17T21:04:08.537Z,97518.09
2023-02-17T21:06:39.646Z,97527.56
2023-02-17T21:09:09.521Z,97529.03
2023-02-17T21:11:37.168Z,97531.66
2023-02-17T21:14:05.061Z,97519.72
2023-02-17T21:16:34.117Z,97515.47
2023-02-17T21:19:02.636Z,97523.16
2023-02-17T21:21:31.073Z,97527.56
2023-02-17T21:23:59.578Z,97521.53
2023-02-17T21:26:27.616Z,97515.66
2023-02-17T21:28:55.441Z,97522.66
2023-02-17T21:31:23.111Z,97513.69
2023-02-17T21:33:52.204Z,97516.13
2023-02-17T21:36:20.072Z,97516.31
2023-02-17T21:38:48.690Z,97519.09
2023-02-17T21:41:18.727Z,97515.81
2023-02-17T21:44:04.053Z,97520.06
2023-02-17T21:46:31.668Z,97525.13
2023-02-17T21:49:02.151Z,97532.97
2023-02-17T21:51:29.868Z,97528.72
2023-02-17T21:53:57.858Z,97527.28
2023-02-17T21:56:25.938Z,97527.88
2023-02-17T21:58:55.410Z,97527.09
2023-02-17T22:01:24.851Z,97531.66
2023-02-17T22:03:52.813Z,97535.25
2023-02-17T22:06:24.342Z,97525.78
2023-02-17T22:08:52.094Z,97531.66
2023-02-17T22:11:23.026Z,97534.28
2023-02-17T22:13:51.023Z,97533.47
2023-02-17T22:16:18.722Z,97529.88
2023-02-17T22:18:46.564Z,97535.91
2023-02-17T22:21:15.789Z,97533.31
2023-02-17T22:23:45.259Z,97538.53
2023-02-17T22:26:15.455Z,97541.16
2023-02-17T22:28:43.595Z,97531.66
2023-02-17T22:31:13.535Z,97539.50
2023-02-17T22:33:41.225Z,97539.50
2023-02-17T22:36:11.293Z,97546.38
2023-02-17T22:38:38.956Z,97549.78
2023-02-17T22:41:09.496Z,97547.03
2023-02-17T22:43:38.027Z,97553.06
2023-02-17T22:46:07.291Z,97548.00
2023-02-17T22:48:37.263Z,97548.00
2023-02-17T22:51:06.627Z,97553.22
2023-02-17T22:53:35.240Z,97548.78
2023-02-17T22:56:03.237Z,97549.63
2023-02-17T22:58:32.817Z,97548.78
2023-02-17T23:01:05.180Z,97551.25
2023-02-17T23:03:33.176Z,97541.94
2023-02-17T23:06:01.798Z,97547.19
2023-02-17T23:08:29.677Z,97549.63
2023-02-17T23:10:57.537Z,97541.94
2023-02-17T23:13:25.158Z,97547.19
2023-02-17T23:15:54.116Z,97547.03
2023-02-17T23:18:21.971Z,97531.34
2023-02-17T23:20:51.657Z,97534.59
2023-02-17T23:23:19.996Z,97538.84
2023-02-17T23:25:50.723Z,97538.03
2023-02-17T23:28:19.500Z,97525.78
2023-02-17T23:30:47.962Z,97515.31
2023-02-17T23:33:18.018Z,97524.97
2023-02-17T23:35:47.566Z,97533.63
2023-02-17T23:38:16.320Z,97528.22
2023-02-17T23:40:44.816Z,97525.63
2023-02-17T23:43:12.481Z,97525.63
2023-02-17T23:45:41.274Z,97522.19
2023-02-17T23:48:09.078Z,97524.81
2023-02-17T23:50:38.063Z,97518.75
2023-02-17T23:53:06.396Z,97526.44
2023-02-17T23:55:34.276Z,97523.66
2023-02-17T23:58:02.160Z,97515.97
